Time;durP1;ratioP1;P1;durP2;ratioP2;P2;SDS_P1;SDS_P2;PMS_P1;PMS_P2;Temp;Humidity;BMP_temperature;BMP_pressure;BME280_temperature;BME280_humidity;BME280_pressure;Samples;Min_cycle;Max_cycle;Signal;HPM_P1;HPM_P2
2023/08/10 00:01:55;;;;;;;2.00;1.80;;;;;;;20.61;59.95;94869.91;5073675;28;20526;-73
2023/08/10 00:04:21;;;;;;;5.73;2.50;;;;;;;20.73;59.56;94870.19;5073393;28;20451;-72
2023/08/10 00:06:50;;;;;;;2.33;1.97;;;;;;;20.75;59.92;94872.69;5073056;28;20489;-73
2023/08/10 00:09:16;;;;;;;3.30;2.00;;;;;;;20.82;59.93;94874.41;5073396;28;20465;-73
2023/08/10 00:11:43;;;;;;;4.73;2.13;;;;;;;20.81;59.60;94874.56;5073066;28;20784;-72
2023/08/10 00:14:10;;;;;;;3.83;2.20;;;;;;;20.82;59.82;94878.91;5073036;28;20448;-72
2023/08/10 00:16:38;;;;;;;2.30;2.10;;;;;;;20.85;59.38;94879.34;5072953;28;20448;-72
2023/08/10 00:19:05;;;;;;;7.43;2.40;;;;;;;20.70;60.02;94875.94;5073453;28;20450;-72
2023/08/10 00:21:32;;;;;;;2.20;2.00;;;;;;;20.77;60.24;94879.47;5072126;28;20909;-72
2023/08/10 00:24:00;;;;;;;2.27;2.10;;;;;;;20.79;60.17;94876.59;5072713;28;20205;-72
2023/08/10 00:26:28;;;;;;;2.10;2.00;;;;;;;20.71;60.25;94869.56;5072989;28;20486;-72
2023/08/10 00:28:55;;;;;;;2.50;2.00;;;;;;;20.81;60.46;94875.38;5072841;28;20955;-72
2023/08/10 00:31:22;;;;;;;2.73;2.13;;;;;;;20.80;60.38;94876.41;5072656;28;20467;-72
2023/08/10 00:33:48;;;;;;;1.80;1.70;;;;;;;20.70;60.82;94874.09;5072447;28;20471;-73
2023/08/10 00:36:15;;;;;;;5.83;2.23;;;;;;;20.54;61.31;94871.69;5053618;28;20436;-72
2023/08/10 00:38:44;;;;;;;2.60;2.13;;;;;;;20.62;61.09;94865.41;5072734;28;20446;-72
2023/08/10 00:41:12;;;;;;;3.30;2.33;;;;;;;20.50;62.19;94869.59;5072761;28;20451;-72
2023/08/10 00:43:40;;;;;;;2.27;1.97;;;;;;;20.49;64.79;94859.94;5072504;28;20446;-72
2023/08/10 00:46:10;;;;;;;5.30;2.03;;;;;;;20.16;66.00;94856.94;5072414;28;20445;-71
2023/08/10 00:48:40;;;;;;;2.50;2.30;;;;;;;19.84;67.23;94848.41;5072324;28;20492;-72
2023/08/10 00:51:09;;;;;;;2.53;2.30;;;;;;;19.72;68.89;94853.41;5072181;28;20769;-72
2023/08/10 00:53:38;;;;;;;2.23;2.03;;;;;;;19.57;68.92;94847.25;5053626;28;20506;-72
2023/08/10 00:56:06;;;;;;;3.83;2.17;;;;;;;19.57;69.42;94841.13;5053014;28;20429;-72
2023/08/10 00:58:34;;;;;;;3.00;2.23;;;;;;;19.35;70.32;94840.19;5071509;28;20931;-72
2023/08/10 01:01:01;;;;;;;2.67;2.07;;;;;;;19.28;70.16;94831.28;5072123;28;20454;-72
2023/08/10 01:03:28;;;;;;;2.53;2.10;;;;;;;19.34;70.05;94836.69;5072079;28;20819;-72
2023/08/10 01:06:06;;;;;;;3.07;2.77;;;;;;;19.45;70.61;94838.09;5072081;28;20447;-73
2023/08/10 01:08:40;;;;;;;2.60;2.40;;;;;;;19.61;70.06;94837.88;5072073;28;20486;-73
2023/08/10 01:11:16;;;;;;;2.67;2.17;;;;;;;19.56;68.06;94834.97;5071973;28;20445;-72
2023/08/10 01:13:53;;;;;;;2.57;2.37;;;;;;;19.56;67.47;94834.97;5071874;28;20437;-72
2023/08/10 01:16:22;;;;;;;2.80;2.50;;;;;;;19.61;67.02;94837.06;5072003;28;20472;-72
2023/08/10 01:18:54;;;;;;;2.70;2.50;;;;;;;19.69;67.01;94829.81;5071749;28;20439;-73
2023/08/10 01:21:33;;;;;;;2.10;2.00;;;;;;;19.78;66.55;94833.19;5071760;28;20545;-72
2023/08/10 01:24:09;;;;;;;2.50;2.03;;;;;;;19.97;67.37;94826.44;5071696;28;20819;-72
2023/08/10 01:26:38;;;;;;;2.73;2.53;;;;;;;19.96;65.62;94814.94;5071571;28;20840;-72
2023/08/10 01:29:05;;;;;;;2.35;2.10;;;;;;;20.03;64.21;94812.34;5071127;28;20909;-72
2023/08/10 01:31:32;;;;;;;3.43;2.17;;;;;;;20.18;64.31;94821.09;5071590;28;20230;-72
2023/08/10 01:33:59;;;;;;;2.03;1.83;;;;;;;20.30;65.21;94827.56;5071524;28;20468;-72
2023/08/10 01:36:26;;;;;;;2.17;2.07;;;;;;;20.38;65.51;94826.59;5071378;28;20445;-73
2023/08/10 01:38:54;;;;;;;3.73;2.10;;;;;;;20.42;65.48;94828.72;5071540;28;20444;-73
2023/08/10 01:41:21;;;;;;;1.93;1.73;;;;;;;20.32;66.41;94819.38;5052397;28;20428;-72
2023/08/10 01:43:49;;;;;;;2.37;2.17;;;;;;;20.34;66.72;94823.50;5071481;28;20439;-72
2023/08/10 01:46:20;;;;;;;2.83;2.53;;;;;;;20.36;65.65;94817.97;5071573;28;20437;-72
2023/08/10 01:48:52;;;;;;;3.00;2.33;;;;;;;20.41;65.39;94828.91;5071284;28;20481;-72
2023/08/10 01:51:23;;;;;;;1.90;1.80;;;;;;;20.36;65.10;94828.63;5071385;28;20530;-73
2023/08/10 01:53:51;;;;;;;2.27;2.07;;;;;;;20.36;65.51;94832.13;5071609;28;20443;-72
2023/08/10 01:56:19;;;;;;;2.40;2.17;;;;;;;20.37;65.49;94838.28;5071401;28;20440;-73
2023/08/10 01:58:46;;;;;;;4.17;2.10;;;;;;;20.21;64.39;94849.19;5071227;28;20450;-73
2023/08/10 02:01:15;;;;;;;2.17;1.97;;;;;;;20.24;65.63;94857.66;5071305;28;20455;-73
2023/08/10 02:03:42;;;;;;;2.47;2.27;;;;;;;20.11;65.50;94865.50;5071076;28;20439;-72
2023/08/10 02:06:09;;;;;;;3.40;2.17;;;;;;;19.78;66.41;94849.16;5071160;28;20449;-72
2023/08/10 02:08:36;;;;;;;3.33;2.07;;;;;;;19.64;66.77;94845.50;5073014;28;20837;-72
2023/08/10 02:11:02;;;;;;;2.53;2.33;;;;;;;19.27;68.41;94834.97;5075451;28;20447;-74
2023/08/10 02:13:29;;;;;;;2.97;2.67;;;;;;;19.15;69.24;94837.28;5075137;28;20475;-73
2023/08/10 02:15:56;;;;;;;2.40;2.20;;;;;;;19.15;69.24;94846.09;5074881;28;20442;-72
2023/08/10 02:18:24;;;;;;;2.97;2.67;;;;;;;19.30;69.17;94839.91;5075398;28;20450;-73
2023/08/10 02:20:51;;;;;;;5.90;2.50;;;;;;;19.35;69.25;94834.88;5075210;28;20468;-72
2023/08/10 02:23:18;;;;;;;2.70;2.50;;;;;;;19.43;69.37;94829.47;5075241;28;20451;-73
2023/08/10 02:25:44;;;;;;;4.23;2.27;;;;;;;19.49;68.03;94839.34;5074889;28;20459;-73
2023/08/10 02:28:11;;;;;;;2.23;2.03;;;;;;;19.65;68.25;94833.84;5074867;28;20484;-73
2023/08/10 02:30:39;;;;;;;2.60;2.40;;;;;;;19.83;67.65;94848.59;5074824;28;20859;-73
2023/08/10 02:33:07;;;;;;;7.20;2.30;;;;;;;19.95;67.52;94860.38;5074999;28;20534;-72
2023/08/10 02:35:35;;;;;;;2.40;2.20;;;;;;;20.05;66.99;94861.75;5074494;28;20518;-73
2023/08/10 02:38:02;;;;;;;3.67;2.57;;;;;;;20.16;66.78;94879.06;5074912;28;20448;-73
2023/08/10 02:40:29;;;;;;;2.67;2.17;;;;;;;20.20;66.47;94875.00;5074621;28;20433;-72
2023/08/10 02:42:56;;;;;;;4.40;2.40;;;;;;;20.22;66.27;94883.63;5074642;28;20440;-73
2023/08/10 02:45:23;;;;;;;2.40;2.30;;;;;;;20.17;66.49;94880.72;5074732;28;20446;-73
2023/08/10 02:47:49;;;;;;;2.90;2.70;;;;;;;20.23;66.44;94889.78;5074312;28;20489;-73
2023/08/10 02:50:16;;;;;;;2.53;2.33;;;;;;;20.30;67.01;94888.88;5074665;28;20451;-73
2023/08/10 02:52:44;;;;;;;2.83;2.60;;;;;;;20.37;67.73;94903.06;5055567;28;20451;-73
2023/08/10 02:55:11;;;;;;;2.60;2.40;;;;;;;20.43;67.64;94917.50;5074512;28;20922;-72
2023/08/10 02:57:38;;;;;;;3.60;2.60;;;;;;;20.47;68.30;94915.28;5074132;28;20451;-73
2023/08/10 03:00:08;;;;;;;2.53;2.33;;;;;;;20.51;69.11;94924.56;5074518;28;20443;-73
2023/08/10 03:02:35;;;;;;;4.33;2.70;;;;;;;20.51;70.56;94938.72;5074326;28;20441;-72
2023/08/10 03:05:01;;;;;;;2.73;2.50;;;;;;;20.50;70.50;94942.38;5074270;28;20564;-72
2023/08/10 03:07:28;;;;;;;4.53;2.40;;;;;;;20.38;69.94;94947.38;5074389;28;20488;-73
2023/08/10 03:09:57;;;;;;;3.07;2.27;;;;;;;20.38;70.87;94955.38;5074089;28;20441;-72
2023/08/10 03:12:26;;;;;;;3.50;2.47;;;;;;;20.28;71.06;94951.38;5075509;28;20441;-73
2023/08/10 03:14:53;;;;;;;4.23;2.10;;;;;;;20.29;71.06;94953.03;5076360;28;20453;-73
2023/08/10 03:17:20;;;;;;;3.07;2.70;;;;;;;20.28;71.72;94952.19;5039218;28;20570;-73
2023/08/10 03:19:50;;;;;;;4.00;3.70;;;;;;;20.29;72.41;94953.03;5073489;28;20452;-74
2023/08/10 03:22:17;;;;;;;3.03;2.83;;;;;;;20.22;73.00;94952.91;5074100;28;20524;-72
2023/08/10 03:24:44;;;;;;;2.60;2.40;;;;;;;20.15;73.99;94960.03;5073628;28;20934;-73
2023/08/10 03:27:12;;;;;;;3.17;2.67;;;;;;;20.12;74.70;94960.41;5073871;28;20802;-72
2023/08/10 03:29:39;;;;;;;2.63;2.43;;;;;;;20.09;76.06;94956.28;5073724;28;20444;-72
2023/08/10 03:32:06;;;;;;;3.00;2.70;;;;;;;20.08;76.88;94956.47;5073669;28;20963;-72
2023/08/10 03:34:32;;;;;;;4.33;3.00;;;;;;;20.08;77.02;94956.47;5073454;28;20472;-72
2023/08/10 03:36:59;;;;;;;3.90;2.90;;;;;;;20.06;77.38;94953.97;5073491;28;20446;-73
2023/08/10 03:39:26;;;;;;;3.27;3.07;;;;;;;20.00;78.08;94945.91;5073615;28;20534;-73
2023/08/10 03:41:53;;;;;;;3.13;2.83;;;;;;;19.97;78.29;94940.97;5073605;28;20483;-72
2023/08/10 03:44:21;;;;;;;3.30;3.00;;;;;;;19.91;79.17;94920.38;5073364;28;20435;-72
2023/08/10 03:46:48;;;;;;;3.20;2.80;;;;;;;19.69;80.36;94922.19;5073647;28;20439;-72
2023/08/10 03:49:15;;;;;;;3.87;2.80;;;;;;;19.59;82.52;94921.63;5073464;28;20580;-72
2023/08/10 03:51:42;;;;;;;5.43;3.00;;;;;;;19.44;83.43;94924.25;5073463;28;20448;-72
2023/08/10 03:54:09;;;;;;;4.13;3.17;;;;;;;19.33;83.54;94940.66;5073074;28;20966;-73
2023/08/10 03:56:36;;;;;;;3.43;3.13;;;;;;;19.23;84.14;94946.25;5073566;28;20445;-72
2023/08/10 03:59:03;;;;;;;3.70;3.30;;;;;;;19.18;85.14;94960.09;5073234;28;20525;-72
2023/08/10 04:01:32;;;;;;;4.00;3.70;;;;;;;19.17;86.71;94963.78;5073041;28;20471;-72
2023/08/10 04:03:59;;;;;;;4.53;3.70;;;;;;;19.11;87.03;94969.81;5037587;28;20438;-72
2023/08/10 04:06:26;;;;;;;4.40;3.47;;;;;;;19.19;87.83;94979.56;5072860;28;20439;-72
2023/08/10 04:08:54;;;;;;;3.90;3.60;;;;;;;19.33;87.94;94993.88;5072923;28;20552;-72
2023/08/10 04:11:21;;;;;;;5.33;3.40;;;;;;;19.45;87.08;94997.78;5073126;28;20445;-72
2023/08/10 04:13:47;;;;;;;4.83;3.77;;;;;;;19.52;86.74;95005.84;5072925;28;20456;-73
2023/08/10 04:16:14;;;;;;;3.60;3.30;;;;;;;19.66;86.97;95002.38;5073023;28;20436;-73
2023/08/10 04:18:43;;;;;;;3.87;3.57;;;;;;;19.80;86.51;95012.22;5072599;28;20498;-73
2023/08/10 04:21:10;;;;;;;5.17;4.23;;;;;;;19.91;86.37;95008.28;5072823;28;20455;-72
2023/08/10 04:23:36;;;;;;;4.70;3.60;;;;;;;20.20;85.22;95007.41;5072679;28;20456;-72
2023/08/10 04:26:03;;;;;;;5.73;3.70;;;;;;;20.36;83.81;95001.88;5072666;28;20472;-72
2023/08/10 04:28:32;;;;;;;3.93;3.63;;;;;;;20.35;83.23;95001.06;5072506;28;20484;-72
2023/08/10 04:30:59;;;;;;;3.90;3.40;;;;;;;20.24;83.79;95000.69;5072751;28;20448;-73
2023/08/10 04:33:25;;;;;;;3.83;3.50;;;;;;;20.01;84.33;95006.16;5072330;28;20825;-72
2023/08/10 04:35:54;;;;;;;4.13;3.30;;;;;;;20.21;86.14;95012.56;5072696;28;20499;-72
2023/08/10 04:38:20;;;;;;;4.67;3.43;;;;;;;20.37;84.84;95024.88;5034534;28;20462;-73
2023/08/10 04:40:48;;;;;;;6.07;3.80;;;;;;;20.63;83.94;95033.19;5066429;28;20541;-73
2023/08/10 04:43:15;;;;;;;8.30;3.30;;;;;;;20.92;82.43;95034.94;5072262;28;20453;-72
2023/08/10 04:45:42;;;;;;;4.30;3.20;;;;;;;21.06;80.26;95046.56;5072067;28;20440;-73
2023/08/10 04:48:12;;;;;;;5.10;3.00;;;;;;;21.34;79.78;95043.97;5072194;28;20490;-72
2023/08/10 04:50:39;;;;;;;5.80;3.10;;;;;;;21.52;79.29;95056.88;5072157;28;20446;-73
2023/08/10 04:53:07;;;;;;;5.13;3.53;;;;;;;21.57;79.13;95055.25;5072111;28;20438;-73
2023/08/10 04:55:34;;;;;;;7.93;4.17;;;;;;;21.55;78.81;95061.81;5053224;28;20484;-72
2023/08/10 04:58:00;;;;;;;7.03;3.27;;;;;;;21.57;78.34;95052.59;5069735;28;20952;-73
2023/08/10 05:00:28;;;;;;;5.77;3.50;;;;;;;21.48;78.25;95058.28;5072085;28;20443;-73
2023/08/10 05:02:55;;;;;;;12.80;3.70;;;;;;;21.47;79.61;95052.09;5072191;28;20442;-73
2023/08/10 05:05:22;;;;;;;10.00;3.90;;;;;;;21.56;79.37;95058.13;5072488;28;20454;-73
2023/08/10 05:07:49;;;;;;;4.73;4.10;;;;;;;21.59;78.89;95047.06;5073240;28;20913;-73
2023/08/10 05:10:19;;;;;;;6.10;3.33;;;;;;;21.57;78.64;95047.25;5072425;28;20445;-72
2023/08/10 05:12:46;;;;;;;5.90;3.03;;;;;;;22.05;75.87;95049.25;5054017;28;20445;-72
2023/08/10 05:15:13;;;;;;;3.87;3.17;;;;;;;22.05;75.91;95047.41;5072275;28;20450;-72
2023/08/10 05:17:39;;;;;;;3.77;2.50;;;;;;;22.38;72.85;95049.44;5072886;28;20498;-74
2023/08/10 05:20:10;;;;;;;3.53;3.23;;;;;;;22.17;72.69;95051.16;5072660;28;20444;-73
2023/08/10 05:22:38;;;;;;;6.90;3.90;;;;;;;21.91;74.47;95049.13;5071494;28;20459;-72
2023/08/10 05:25:08;;;;;;;3.20;3.00;;;;;;;21.62;75.32;95047.50;5072895;28;20785;-73
2023/08/10 05:27:37;;;;;;;3.80;3.17;;;;;;;21.34;77.12;95043.97;5072354;28;20453;-73
2023/08/10 05:30:08;;;;;;;4.10;3.30;;;;;;;21.06;78.47;95043.06;5072813;28;20448;-74
2023/08/10 05:32:35;;;;;;;10.47;4.20;;;;;;;20.76;80.01;95037.84;5072793;28;20446;-74
2023/08/10 05:35:02;;;;;;;7.23;3.40;;;;;;;20.54;81.40;95039.66;5072357;28;20475;-74
2023/08/10 05:37:30;;;;;;;4.43;3.33;;;;;;;20.40;82.97;95041.34;5072551;28;20459;-74
2023/08/10 05:39:57;;;;;;;6.03;3.60;;;;;;;20.18;82.47;95036.09;5072512;28;20463;-73
2023/08/10 05:42:24;;;;;;;5.63;3.80;;;;;;;20.10;83.84;95045.03;5071978;28;20837;-74
2023/08/10 05:44:52;;;;;;;4.73;3.10;;;;;;;19.89;84.36;95039.59;5072431;28;20764;-74
2023/08/10 05:47:19;;;;;;;9.70;4.10;;;;;;;19.61;86.10;95045.53;5036905;28;20453;-73
2023/08/10 05:49:46;;;;;;;14.00;4.60;;;;;;;19.21;88.30;95040.56;5072414;28;20494;-74
2023/08/10 05:52:14;;;;;;;10.80;4.50;;;;;;;18.97;89.06;95039.75;5072018;28;20448;-74
2023/08/10 05:54:40;;;;;;;11.87;4.80;;;;;;;18.67;91.61;95041.44;5072454;28;20454;-74
2023/08/10 05:57:07;;;;;;;10.33;4.77;;;;;;;18.67;94.66;95030.81;5072608;28;20453;-74
2023/08/10 05:59:34;;;;;;;8.20;4.43;;;;;;;18.67;96.32;95032.66;5072648;28;20442;-74
2023/08/10 06:02:02;;;;;;;7.63;4.10;;;;;;;18.87;95.66;95029.34;5072432;28;20453;-74
2023/08/10 06:04:32;;;;;;;5.40;4.70;;;;;;;19.00;94.91;95042.06;5049275;28;20434;-73
2023/08/10 06:06:59;;;;;;;4.53;3.50;;;;;;;19.21;93.92;95036.06;5039752;28;20437;-73
2023/08/10 06:09:25;;;;;;;6.57;3.40;;;;;;;19.29;91.38;95029.84;5052093;28;20492;-73
2023/08/10 06:11:52;;;;;;;4.37;3.67;;;;;;;19.06;91.76;95024.53;5052815;28;20944;-73
2023/08/10 06:14:19;;;;;;;6.30;3.80;;;;;;;18.85;93.63;95006.63;5071940;28;20461;-74
2023/08/10 06:16:46;;;;;;;5.17;3.70;;;;;;;19.17;94.84;94987.72;5072382;28;20441;-76
2023/08/10 06:19:14;;;;;;;4.37;3.97;;;;;;;19.08;93.05;94978.16;5035373;28;20449;-74
2023/08/10 06:21:41;;;;;;;4.43;3.53;;;;;;;18.79;91.67;94976.25;5067716;28;20471;-73
2023/08/10 06:24:09;;;;;;;3.80;3.47;;;;;;;18.79;93.22;94975.41;5070762;28;20958;-74
2023/08/10 06:26:36;;;;;;;3.67;3.37;;;;;;;18.50;94.80;94976.06;5070573;28;20781;-74
2023/08/10 06:29:05;;;;;;;4.20;3.60;;;;;;;18.37;96.68;94986.47;5071971;28;20517;-74
2023/08/10 06:31:32;;;;;;;4.17;3.53;;;;;;;18.08;97.95;95003.88;5071772;28;20860;-75
2023/08/10 06:33:59;;;;;;;12.93;4.87;;;;;;;18.66;100.00;95033.66;5071445;28;20598;-75
2023/08/10 06:36:27;;;;;;;7.63;5.73;;;;;;;18.90;100.00;95044.13;5036422;28;20524;-74
2023/08/10 06:38:54;;;;;;;5.27;4.47;;;;;;;18.97;100.00;95047.72;5071766;28;20963;-74
2023/08/10 06:41:21;;;;;;;4.63;3.87;;;;;;;18.78;94.67;95033.06;5071935;28;20439;-74
2023/08/10 06:43:49;;;;;;;3.97;3.60;;;;;;;18.75;96.96;95022.78;5071502;28;20466;-73
2023/08/10 06:46:19;;;;;;;3.73;3.37;;;;;;;18.63;93.95;95028.69;5071371;28;20451;-72
2023/08/10 06:48:48;;;;;;;4.20;3.80;;;;;;;18.45;95.02;95024.44;5055439;28;20485;-73
2023/08/10 06:51:15;;;;;;;6.00;3.30;;;;;;;18.08;96.94;95019.81;5058694;28;20445;-74
2023/08/10 06:53:44;;;;;;;10.83;4.30;;;;;;;18.21;100.00;95021.91;5071876;28;20452;-74
2023/08/10 06:56:10;;;;;;;9.77;4.70;;;;;;;18.46;100.00;95027.91;5022274;28;20799;-74
2023/08/10 06:58:37;;;;;;;9.63;4.67;;;;;;;18.66;100.00;95039.78;5074282;28;20444;-73
2023/08/10 07:01:05;;;;;;;6.20;3.90;;;;;;;18.83;99.12;95051.16;5071426;28;20463;-74
2023/08/10 07:03:32;;;;;;;7.33;4.70;;;;;;;18.94;99.15;95055.22;5071993;28;20469;-74
2023/08/10 07:05:59;;;;;;;5.63;5.10;;;;;;;18.99;98.86;95060.84;5064650;28;20446;-75
2023/08/10 07:08:26;;;;;;;6.00;4.93;;;;;;;18.98;98.89;95062.69;5072354;28;20490;-74
2023/08/10 07:10:54;;;;;;;5.13;4.60;;;;;;;19.09;99.05;95059.63;5057709;28;20444;-75
2023/08/10 07:13:21;;;;;;;5.33;4.93;;;;;;;19.04;98.20;95063.78;5057975;28;20455;-74
2023/08/10 07:15:48;;;;;;;5.90;4.80;;;;;;;19.03;97.42;95060.31;5055331;28;20440;-74
2023/08/10 07:18:15;;;;;;;4.40;4.00;;;;;;;18.98;97.00;95065.34;5063374;28;20455;-74
2023/08/10 07:20:41;;;;;;;4.57;4.17;;;;;;;18.81;95.83;95061.16;5074668;28;20446;-74
2023/08/10 07:23:08;;;;;;;5.17;4.77;;;;;;;18.53;97.65;95058.13;5073780;28;20450;-74
2023/08/10 07:25:37;;;;;;;12.63;5.10;;;;;;;18.38;100.00;95050.06;5039110;28;20442;-74
2023/08/10 07:28:06;;;;;;;8.53;4.83;;;;;;;18.42;100.00;95051.34;5074043;28;20510;-73
2023/08/10 07:30:33;;;;;;;6.10;5.60;;;;;;;18.19;100.00;95050.47;5073605;28;20513;-73
2023/08/10 07:33:00;;;;;;;5.60;5.20;;;;;;;17.99;100.00;95049.25;5073296;28;20438;-74
2023/08/10 07:35:27;;;;;;;5.30;4.90;;;;;;;18.33;100.00;95049.75;5073670;28;20469;-74
2023/08/10 07:37:54;;;;;;;5.83;5.33;;;;;;;18.64;100.00;95051.59;5074370;28;20474;-74
2023/08/10 07:40:20;;;;;;;5.93;5.40;;;;;;;18.72;100.00;95064.84;5051681;28;20786;-74
2023/08/10 07:42:47;;;;;;;5.63;5.23;;;;;;;18.82;100.00;95063.63;5071786;28;20438;-74
2023/08/10 07:45:16;;;;;;;6.33;5.40;;;;;;;18.98;100.00;95065.34;5073536;28;20527;-74
2023/08/10 07:47:42;;;;;;;5.90;4.70;;;;;;;19.09;100.00;95067.59;5072898;28;20446;-74
2023/08/10 07:50:10;;;;;;;5.73;4.87;;;;;;;19.18;100.00;95065.69;5073251;28;20496;-73
2023/08/10 07:52:37;;;;;;;5.30;4.33;;;;;;;19.13;100.00;95073.38;5073579;28;20454;-75
2023/08/10 07:55:05;;;;;;;5.67;4.47;;;;;;;19.15;99.47;95074.03;5073429;28;20451;-74
2023/08/10 07:57:32;;;;;;;4.77;4.37;;;;;;;18.98;97.66;95075.16;5073360;28;20453;-74
2023/08/10 08:00:04;;;;;;;4.97;4.57;;;;;;;19.08;100.00;95073.94;5072831;28;20449;-74
2023/08/10 08:02:33;;;;;;;5.27;4.83;;;;;;;19.60;100.00;95070.50;5069874;28;20472;-73
2023/08/10 08:05:00;;;;;;;5.90;5.10;;;;;;;19.77;98.77;95080.00;5074136;28;20450;-73
2023/08/10 08:07:26;;;;;;;5.23;4.27;;;;;;;19.96;98.48;95081.31;5072176;28;20435;-74
2023/08/10 08:09:53;;;;;;;8.20;4.80;;;;;;;20.17;96.88;95079.75;5072989;28;20488;-74
2023/08/10 08:12:20;;;;;;;4.80;4.50;;;;;;;20.26;93.12;95074.16;5072818;28;20804;-74
2023/08/10 08:14:47;;;;;;;4.80;4.40;;;;;;;20.20;93.98;95074.03;5071647;28;20840;-73
2023/08/10 08:17:14;;;;;;;4.50;4.20;;;;;;;20.20;92.41;95082.03;5072880;28;20441;-75
2023/08/10 08:19:42;;;;;;;4.00;3.67;;;;;;;20.24;91.30;95086.84;5072853;28;20452;-74
2023/08/10 08:22:09;;;;;;;3.90;3.60;;;;;;;20.38;94.73;95085.16;5072609;28;20919;-74
2023/08/10 08:24:36;;;;;;;7.40;4.70;;;;;;;20.56;90.05;95087.47;5072590;28;20445;-74
2023/08/10 08:27:03;;;;;;;5.20;4.30;;;;;;;20.57;88.48;95087.28;5072702;28;20944;-73
2023/08/10 08:29:31;;;;;;;5.53;4.47;;;;;;;20.44;89.15;95089.78;5038186;28;20476;-74
2023/08/10 08:31:58;;;;;;;4.63;4.33;;;;;;;20.38;87.99;95093.16;5072686;28;20444;-74
2023/08/10 08:34:25;;;;;;;4.67;4.27;;;;;;;20.41;87.97;95095.47;5072825;28;20492;-74
2023/08/10 08:36:53;;;;;;;5.17;4.67;;;;;;;20.35;89.81;95090.84;5073505;28;20446;-75
2023/08/10 08:39:20;;;;;;;5.30;4.80;;;;;;;20.33;88.76;95088.38;5073151;28;20946;-74
2023/08/10 08:41:49;;;;;;;5.23;4.73;;;;;;;20.35;88.36;95081.03;5073064;28;20503;-74
2023/08/10 08:44:15;;;;;;;4.83;4.43;;;;;;;20.34;89.79;95086.53;5073482;28;20451;-74
2023/08/10 08:46:48;;;;;;;5.37;4.60;;;;;;;20.25;90.41;95082.34;5073221;28;20444;-75
2023/08/10 08:49:16;;;;;;;6.00;5.50;;;;;;;20.31;90.48;95081.59;5073360;28;20492;-74
2023/08/10 08:51:43;;;;;;;7.13;5.23;;;;;;;20.36;88.97;95087.19;5054299;28;20445;-75
2023/08/10 08:54:13;;;;;;;6.70;5.20;;;;;;;20.40;90.67;95091.97;5073466;28;20447;-75
2023/08/10 08:56:40;;;;;;;5.63;5.13;;;;;;;20.41;89.84;95085.63;5073673;28;20452;-75
2023/08/10 08:59:06;;;;;;;5.80;5.40;;;;;;;20.50;89.39;95081.03;5073517;28;20460;-75
2023/08/10 09:01:34;;;;;;;6.10;5.50;;;;;;;20.87;89.54;95082.72;5073441;28;20436;-76
2023/08/10 09:04:00;;;;;;;5.43;5.03;;;;;;;21.13;88.30;95089.34;5073626;28;20495;-75
2023/08/10 09:06:27;;;;;;;5.40;4.90;;;;;;;21.43;90.53;95085.56;5073700;28;20441;-76
2023/08/10 09:08:54;;;;;;;7.30;5.43;;;;;;;21.82;89.37;95084.22;5073591;28;20451;-75
2023/08/10 09:11:22;;;;;;;8.73;5.23;;;;;;;22.06;87.44;95082.97;5073076;28;20784;-76
2023/08/10 09:14:05;;;;;;;5.17;4.20;;;;;;;22.33;84.07;95082.13;5073435;28;20960;-75
2023/08/10 09:16:32;;;;;;;8.30;5.00;;;;;;;23.18;80.37;95088.84;5073154;28;20455;-77
2023/08/10 09:18:59;;;;;;;6.00;4.80;;;;;;;23.08;76.92;95097.25;5071964;28;20448;-74
2023/08/10 09:21:25;;;;;;;6.27;5.70;;;;;;;22.70;77.67;95099.56;5072547;28;20445;-74
2023/08/10 09:23:54;;;;;;;5.30;4.87;;;;;;;22.44;78.31;95100.25;5072728;28;20434;-74
2023/08/10 09:26:23;;;;;;;5.97;5.47;;;;;;;22.21;80.02;95099.72;5072338;28;20440;-74
2023/08/10 09:28:51;;;;;;;5.80;5.40;;;;;;;22.10;81.11;95098.44;5072415;28;20457;-74
2023/08/10 09:31:23;;;;;;;8.10;5.53;;;;;;;22.01;81.13;95088.06;5072134;28;20446;-74
2023/08/10 09:33:54;;;;;;;6.40;5.30;;;;;;;21.87;83.24;95090.63;5072212;28;20446;-74
2023/08/10 09:36:23;;;;;;;6.07;5.57;;;;;;;21.79;83.24;95085.44;5072148;28;20932;-75
2023/08/10 09:38:52;;;;;;;6.50;5.70;;;;;;;21.78;81.42;95088.31;5072372;28;20441;-73
2023/08/10 09:41:20;;;;;;;6.23;5.63;;;;;;;21.72;80.51;95079.22;5053270;28;20528;-74
2023/08/10 09:43:49;;;;;;;6.37;5.87;;;;;;;21.67;80.08;95083.47;5071496;28;20451;-74
2023/08/10 09:46:17;;;;;;;5.80;5.23;;;;;;;21.76;81.79;95082.34;5071697;28;20446;-74
2023/08/10 09:48:47;;;;;;;5.40;4.97;;;;;;;21.85;81.26;95078.47;5071335;28;20446;-74
2023/08/10 09:51:14;;;;;;;6.97;6.37;;;;;;;21.95;80.49;95079.78;5071389;28;20538;-74
2023/08/10 09:53:42;;;;;;;7.33;5.93;;;;;;;22.06;81.90;95082.97;5071484;28;20447;-74
2023/08/10 09:56:09;;;;;;;7.67;4.97;;;;;;;22.13;83.27;95071.31;5071257;28;20450;-74
2023/08/10 09:58:37;;;;;;;5.60;5.07;;;;;;;22.10;78.11;95073.53;5071337;28;20439;-74
2023/08/10 10:01:07;;;;;;;6.33;5.83;;;;;;;21.94;79.84;95072.78;5071563;28;20443;-74
2023/08/10 10:03:34;;;;;;;6.60;5.70;;;;;;;21.89;78.93;95063.72;5071104;28;20448;-74
2023/08/10 10:06:02;;;;;;;6.80;6.17;;;;;;;21.66;79.73;95063.94;5071430;28;20456;-74
2023/08/10 10:08:29;;;;;;;7.60;6.00;;;;;;;21.11;79.03;95067.38;5071302;28;20962;-74
2023/08/10 10:10:59;;;;;;;6.33;5.57;;;;;;;20.94;79.35;95067.59;5071161;28;20852;-74
2023/08/10 10:13:26;;;;;;;6.20;5.60;;;;;;;21.07;81.50;95063.41;5071474;28;20479;-74
2023/08/10 10:15:55;;;;;;;6.40;5.77;;;;;;;21.26;78.39;95076.16;5071333;28;20498;-74
2023/08/10 10:18:23;;;;;;;4.73;4.17;;;;;;;21.19;78.14;95073.38;5071184;28;20947;-74
2023/08/10 10:20:51;;;;;;;9.30;3.10;;;;;;;21.14;75.59;95078.47;5071221;28;20451;-74
2023/08/10 10:23:19;;;;;;;2.70;2.50;;;;;;;21.08;71.94;95076.53;5035685;28;20457;-74
2023/08/10 10:25:58;;;;;;;3.87;2.70;;;;;;;21.08;70.46;95081.06;5071356;28;20794;-74
2023/08/10 10:28:26;;;;;;;3.37;3.07;;;;;;;21.23;73.74;95076.50;5036254;28;20545;-74
2023/08/10 10:30:57;;;;;;;5.63;5.23;;;;;;;21.12;77.06;95066.34;5074895;28;20869;-73
2023/08/10 10:33:25;;;;;;;6.17;5.33;;;;;;;21.07;76.92;95074.91;5074899;28;20441;-74
2023/08/10 10:36:10;;;;;;;3.83;3.53;;;;;;;21.08;77.52;95073.88;5074624;28;20485;-74
2023/08/10 10:38:39;;;;;;;3.40;3.07;;;;;;;21.16;78.10;95059.59;5074996;28;20445;-74
2023/08/10 10:41:11;;;;;;;3.77;3.47;;;;;;;21.45;78.27;95066.69;5074891;28;20437;-74
2023/08/10 10:43:38;;;;;;;8.00;3.73;;;;;;;21.45;74.50;95067.50;5074720;28;20472;-74
2023/08/10 10:46:05;;;;;;;7.00;3.80;;;;;;;21.40;74.68;95063.75;5074833;28;20441;-73
2023/08/10 10:48:37;;;;;;;4.23;3.90;;;;;;;21.57;77.72;95071.28;5074943;28;20442;-74
2023/08/10 10:51:05;;;;;;;5.60;3.20;;;;;;;21.85;76.82;95063.28;5075028;28;21055;-74
2023/08/10 10:53:33;;;;;;;6.13;3.60;;;;;;;22.36;73.34;95070.19;5075401;28;20501;-74
2023/08/10 10:56:00;;;;;;;4.37;3.70;;;;;;;22.81;71.12;95068.75;5074605;28;20473;-74
2023/08/10 10:58:31;;;;;;;3.43;3.13;;;;;;;22.82;70.41;95068.56;5074491;28;20449;-74
2023/08/10 11:00:57;;;;;;;3.00;2.77;;;;;;;22.69;70.13;95068.50;5074686;28;20820;-74
2023/08/10 11:03:29;;;;;;;2.83;2.63;;;;;;;22.67;69.45;95067.88;5074543;28;20449;-74
2023/08/10 11:05:57;;;;;;;2.70;2.50;;;;;;;22.69;69.04;95068.50;5074152;28;20490;-74
2023/08/10 11:08:24;;;;;;;3.57;2.97;;;;;;;22.38;68.55;95068.16;5074370;28;20454;-74
2023/08/10 11:10:51;;;;;;;2.93;2.63;;;;;;;22.40;68.12;95066.09;5074185;28;20495;-73
2023/08/10 11:13:20;;;;;;;2.70;2.50;;;;;;;22.38;66.52;95062.81;5074359;28;20441;-73
2023/08/10 11:15:48;;;;;;;3.00;2.17;;;;;;;22.28;66.58;95054.31;5074014;28;20443;-74
2023/08/10 11:18:15;;;;;;;2.73;2.53;;;;;;;22.18;67.43;95060.00;5074166;28;20508;-74
2023/08/10 11:20:47;;;;;;;2.77;2.57;;;;;;;22.32;66.84;95060.94;5074240;28;20503;-74
2023/08/10 11:23:16;;;;;;;2.57;2.37;;;;;;;22.49;68.36;95063.03;5074034;28;20491;-74
2023/08/10 11:25:49;;;;;;;4.77;2.30;;;;;;;22.60;68.82;95067.03;5073862;28;20447;-75
2023/08/10 11:28:17;;;;;;;2.70;2.50;;;;;;;22.64;66.79;95067.44;5073870;28;20450;-75
2023/08/10 11:30:45;;;;;;;2.30;2.20;;;;;;;22.58;65.35;95063.72;5073725;28;20578;-73
2023/08/10 11:33:12;;;;;;;2.40;2.20;;;;;;;22.56;66.09;95055.06;5005633;28;20505;-74
2023/08/10 11:35:42;;;;;;;2.67;2.47;;;;;;;22.71;68.33;95058.41;5073658;28;20481;-73